Terminal Aerodrome Forecast
Issued by NWS Upton, NY

Home | Current Version | Previous Version | Text Only | Print | Product List | Glossary On
Versions: 1 2 3 4 5 6 7 8 9 10 11 12 13 14 15 16 17 18 19 20 21 22 23 24 25 26 27 28 29 30 31 32 33 34 35
629
FTUS41 KOKX 271547 AAC
TAFEWR
TAF AMD
KEWR 271547Z 2716/2818 21007KT P6SM SCT025 BKN035
      TEMPO 2716/2720 BKN025
     FM280700 VRB03KT P6SM SCT025 BKN200=

USA.gov is the U.S. government's official web portal to all federal, state and local government web resources and services.